KRSW/RSW METAR and TAF weather

Enter ICAO airport designator
Station Type Date Time Source
KRSW METAR 2021/03/04 20:53 UTC NOAA

KRSW 042053Z 35006KT 8SM FU FEW034 22/12 A2996 RMK AO2 SLP141 T02170117 56020


Station Type Date Time Source
KRSW Decoded METAR 2021/03/04 20:53 UTC NOAA

FORT MYERS SW FL INTERNATIONAL AIRPORT , FL, United States (KRSW) 26-32N 081-46W 9M
Mar 04, 2021 - 03:53 PM EST / 2021.03.04 2053 UTC
Wind: from the N (350 degrees) at 7 MPH (6 KT):0
Visibility: 8 mile(s):0
Sky conditions: mostly clear
Weather: smoke
Temperature: 71.1 F (21.7 C)
Dew Point: 53.1 F (11.7 C)
Relative Humidity: 52%
Pressure (altimeter): 29.96 in. Hg (1014 hPa)
Pressure tendency: 0.06 inches (2.0 hPa) lower than three hours ago
ob: KRSW 042053Z 35006KT 8SM FU FEW034 22/12 A2996 RMK AO2 SLP141 T02170117 56020
cycle: 21

Station Type Date Time Source
KRSW TAF 2021/03/04 18:36 UTC NOAA

TAF KRSW 041734Z 0418/0518 34008KT P6SM SCT030
TEMPO 0418/0421 BKN030
FM042100 31008KT P6SM FEW040
FM050100 VRB04KT P6SM SKC
FM051400 06008KT P6SM SKC

Example: see airport list